sensor_id;sensor_type;location;lat;lon;timestamp;P1;durP1;ratioP1;P2;durP2;ratioP2
49578;SDS011;35483;50.828;3.228;2023-02-11T00:00:07;12.18;;;6.13;;
49578;SDS011;35483;50.828;3.228;2023-02-11T00:02:33;11.00;;;6.38;;
49578;SDS011;35483;50.828;3.228;2023-02-11T00:04:59;12.88;;;6.78;;
49578;SDS011;35483;50.828;3.228;2023-02-11T00:07:31;11.32;;;6.28;;
49578;SDS011;35483;50.828;3.228;2023-02-11T00:09:57;11.35;;;5.95;;
49578;SDS011;35483;50.828;3.228;2023-02-11T00:12:23;9.27;;;6.40;;
49578;SDS011;35483;50.828;3.228;2023-02-11T00:14:49;11.00;;;6.68;;
49578;SDS011;35483;50.828;3.228;2023-02-11T00:17:15;13.05;;;7.00;;
49578;SDS011;35483;50.828;3.228;2023-02-11T00:19:41;15.02;;;7.25;;
49578;SDS011;35483;50.828;3.228;2023-02-11T00:22:07;12.50;;;7.82;;
49578;SDS011;35483;50.828;3.228;2023-02-11T00:24:32;13.35;;;8.02;;
49578;SDS011;35483;50.828;3.228;2023-02-11T00:26:59;14.02;;;8.43;;
49578;SDS011;35483;50.828;3.228;2023-02-11T00:29:25;13.65;;;8.32;;
49578;SDS011;35483;50.828;3.228;2023-02-11T00:31:50;12.38;;;7.22;;
49578;SDS011;35483;50.828;3.228;2023-02-11T00:34:16;13.70;;;7.72;;
49578;SDS011;35483;50.828;3.228;2023-02-11T00:36:42;14.82;;;7.97;;
49578;SDS011;35483;50.828;3.228;2023-02-11T00:39:07;11.23;;;7.97;;
49578;SDS011;35483;50.828;3.228;2023-02-11T00:41:33;13.60;;;7.88;;
49578;SDS011;35483;50.828;3.228;2023-02-11T00:43:59;13.68;;;7.95;;
49578;SDS011;35483;50.828;3.228;2023-02-11T00:46:26;13.85;;;8.02;;
49578;SDS011;35483;50.828;3.228;2023-02-11T00:48:52;12.20;;;7.25;;
49578;SDS011;35483;50.828;3.228;2023-02-11T00:51:21;17.02;;;7.43;;
49578;SDS011;35483;50.828;3.228;2023-02-11T00:53:51;11.20;;;6.97;;
49578;SDS011;35483;50.828;3.228;2023-02-11T00:56:17;12.20;;;7.18;;
49578;SDS011;35483;50.828;3.228;2023-02-11T00:58:43;14.98;;;8.23;;
49578;SDS011;35483;50.828;3.228;2023-02-11T01:01:09;13.70;;;8.15;;
49578;SDS011;35483;50.828;3.228;2023-02-11T01:03:37;11.15;;;7.32;;
49578;SDS011;35483;50.828;3.228;2023-02-11T01:06:04;13.50;;;7.75;;
49578;SDS011;35483;50.828;3.228;2023-02-11T01:08:30;14.88;;;8.73;;
49578;SDS011;35483;50.828;3.228;2023-02-11T01:10:57;14.18;;;8.57;;
49578;SDS011;35483;50.828;3.228;2023-02-11T01:13:24;16.27;;;9.02;;
49578;SDS011;35483;50.828;3.228;2023-02-11T01:15:51;13.60;;;7.97;;
49578;SDS011;35483;50.828;3.228;2023-02-11T01:18:16;13.13;;;8.43;;
49578;SDS011;35483;50.828;3.228;2023-02-11T01:20:42;16.90;;;8.63;;
49578;SDS011;35483;50.828;3.228;2023-02-11T01:23:08;17.52;;;8.05;;
49578;SDS011;35483;50.828;3.228;2023-02-11T01:25:34;17.40;;;9.02;;
49578;SDS011;35483;50.828;3.228;2023-02-11T01:28:00;12.93;;;8.05;;
49578;SDS011;35483;50.828;3.228;2023-02-11T01:30:25;14.15;;;8.95;;
49578;SDS011;35483;50.828;3.228;2023-02-11T01:32:51;16.90;;;8.52;;
49578;SDS011;35483;50.828;3.228;2023-02-11T01:35:17;13.80;;;8.13;;
49578;SDS011;35483;50.828;3.228;2023-02-11T01:37:43;16.23;;;8.27;;
49578;SDS011;35483;50.828;3.228;2023-02-11T01:40:14;13.77;;;7.53;;
49578;SDS011;35483;50.828;3.228;2023-02-11T01:42:41;13.63;;;7.68;;
49578;SDS011;35483;50.828;3.228;2023-02-11T01:48:16;14.82;;;7.43;;
49578;SDS011;35483;50.828;3.228;2023-02-11T01:51:13;13.55;;;7.95;;
49578;SDS011;35483;50.828;3.228;2023-02-11T01:53:40;13.10;;;8.40;;
49578;SDS011;35483;50.828;3.228;2023-02-11T01:56:26;15.50;;;8.45;;
49578;SDS011;35483;50.828;3.228;2023-02-11T01:59:15;14.82;;;8.65;;
49578;SDS011;35483;50.828;3.228;2023-02-11T02:01:45;16.85;;;8.30;;
49578;SDS011;35483;50.828;3.228;2023-02-11T02:04:16;10.45;;;7.90;;
49578;SDS011;35483;50.828;3.228;2023-02-11T02:06:48;16.73;;;7.93;;
49578;SDS011;35483;50.828;3.228;2023-02-11T02:09:24;14.45;;;8.30;;
49578;SDS011;35483;50.828;3.228;2023-02-11T02:11:53;14.02;;;8.43;;
49578;SDS011;35483;50.828;3.228;2023-02-11T02:14:19;12.30;;;8.05;;
49578;SDS011;35483;50.828;3.228;2023-02-11T02:16:45;14.48;;;7.45;;
49578;SDS011;35483;50.828;3.228;2023-02-11T02:30:32;15.55;;;7.90;;
49578;SDS011;35483;50.828;3.228;2023-02-11T02:33:42;13.50;;;7.55;;
49578;SDS011;35483;50.828;3.228;2023-02-11T02:41:31;13.30;;;7.70;;
49578;SDS011;35483;50.828;3.228;2023-02-11T02:43:58;13.52;;;7.60;;
49578;SDS011;35483;50.828;3.228;2023-02-11T02:46:31;16.80;;;8.45;;
49578;SDS011;35483;50.828;3.228;2023-02-11T02:48:58;13.80;;;8.48;;
49578;SDS011;35483;50.828;3.228;2023-02-11T02:51:35;12.25;;;8.23;;
49578;SDS011;35483;50.828;3.228;2023-02-11T02:57:29;15.63;;;9.07;;
49578;SDS011;35483;50.828;3.228;2023-02-11T03:02:58;10.95;;;7.43;;
49578;SDS011;35483;50.828;3.228;2023-02-11T03:08:17;13.88;;;7.57;;
49578;SDS011;35483;50.828;3.228;2023-02-11T03:10:57;16.58;;;8.13;;
49578;SDS011;35483;50.828;3.228;2023-02-11T03:13:26;12.80;;;7.40;;
49578;SDS011;35483;50.828;3.228;2023-02-11T03:15:57;15.60;;;8.27;;
49578;SDS011;35483;50.828;3.228;2023-02-11T03:18:49;13.95;;;8.00;;
49578;SDS011;35483;50.828;3.228;2023-02-11T03:21:20;9.32;;;7.18;;
49578;SDS011;35483;50.828;3.228;2023-02-11T03:23:59;14.07;;;7.82;;
49578;SDS011;35483;50.828;3.228;2023-02-11T03:26:32;15.75;;;8.88;;
49578;SDS011;35483;50.828;3.228;2023-02-11T03:32:03;11.68;;;8.63;;
49578;SDS011;35483;50.828;3.228;2023-02-11T03:37:18;16.80;;;9.20;;
49578;SDS011;35483;50.828;3.228;2023-02-11T03:39:56;11.05;;;9.07;;
49578;SDS011;35483;50.828;3.228;2023-02-11T03:42:27;14.60;;;9.43;;
49578;SDS011;35483;50.828;3.228;2023-02-11T03:45:10;16.95;;;8.82;;
49578;SDS011;35483;50.828;3.228;2023-02-11T03:47:39;12.00;;;7.63;;
49578;SDS011;35483;50.828;3.228;2023-02-11T03:50:10;13.20;;;8.20;;
49578;SDS011;35483;50.828;3.228;2023-02-11T03:52:38;14.63;;;7.78;;
49578;SDS011;35483;50.828;3.228;2023-02-11T03:55:07;12.27;;;8.45;;
49578;SDS011;35483;50.828;3.228;2023-02-11T03:57:35;14.32;;;9.18;;
49578;SDS011;35483;50.828;3.228;2023-02-11T04:00:02;16.90;;;9.00;;
49578;SDS011;35483;50.828;3.228;2023-02-11T04:02:30;13.07;;;8.70;;
49578;SDS011;35483;50.828;3.228;2023-02-11T04:04:58;14.02;;;8.73;;
49578;SDS011;35483;50.828;3.228;2023-02-11T04:07:24;13.50;;;8.02;;
49578;SDS011;35483;50.828;3.228;2023-02-11T04:09:50;14.70;;;8.40;;
49578;SDS011;35483;50.828;3.228;2023-02-11T04:12:16;12.80;;;8.70;;
49578;SDS011;35483;50.828;3.228;2023-02-11T04:14:42;13.55;;;8.75;;
49578;SDS011;35483;50.828;3.228;2023-02-11T04:17:08;13.90;;;8.23;;
49578;SDS011;35483;50.828;3.228;2023-02-11T04:19:34;15.93;;;9.23;;
49578;SDS011;35483;50.828;3.228;2023-02-11T04:22:00;16.13;;;8.90;;
49578;SDS011;35483;50.828;3.228;2023-02-11T04:24:26;15.43;;;9.25;;
49578;SDS011;35483;50.828;3.228;2023-02-11T04:26:52;15.55;;;8.80;;
49578;SDS011;35483;50.828;3.228;2023-02-11T04:29:18;12.75;;;8.68;;
49578;SDS011;35483;50.828;3.228;2023-02-11T04:31:44;13.93;;;8.65;;
49578;SDS011;35483;50.828;3.228;2023-02-11T04:34:09;14.02;;;9.15;;
49578;SDS011;35483;50.828;3.228;2023-02-11T04:36:35;16.70;;;9.13;;
49578;SDS011;35483;50.828;3.228;2023-02-11T04:39:01;16.45;;;9.73;;
49578;SDS011;35483;50.828;3.228;2023-02-11T04:41:27;17.50;;;10.15;;
49578;SDS011;35483;50.828;3.228;2023-02-11T04:43:53;17.38;;;9.80;;
49578;SDS011;35483;50.828;3.228;2023-02-11T04:46:19;15.45;;;9.20;;
49578;SDS011;35483;50.828;3.228;2023-02-11T04:48:44;15.55;;;9.35;;
49578;SDS011;35483;50.828;3.228;2023-02-11T04:51:10;15.88;;;9.82;;
49578;SDS011;35483;50.828;3.228;2023-02-11T04:53:36;14.20;;;9.88;;
49578;SDS011;35483;50.828;3.228;2023-02-11T04:56:01;12.90;;;8.95;;
49578;SDS011;35483;50.828;3.228;2023-02-11T04:58:27;18.05;;;9.38;;
49578;SDS011;35483;50.828;3.228;2023-02-11T05:00:53;15.25;;;10.77;;
49578;SDS011;35483;50.828;3.228;2023-02-11T05:03:19;13.15;;;9.45;;
49578;SDS011;35483;50.828;3.228;2023-02-11T05:05:44;15.77;;;9.63;;
49578;SDS011;35483;50.828;3.228;2023-02-11T05:08:10;16.00;;;10.05;;
49578;SDS011;35483;50.828;3.228;2023-02-11T05:10:36;15.35;;;11.10;;
49578;SDS011;35483;50.828;3.228;2023-02-11T05:13:02;17.63;;;10.65;;
49578;SDS011;35483;50.828;3.228;2023-02-11T05:15:28;14.63;;;9.77;;
49578;SDS011;35483;50.828;3.228;2023-02-11T05:17:54;15.65;;;10.27;;
49578;SDS011;35483;50.828;3.228;2023-02-11T05:20:20;13.15;;;9.65;;
49578;SDS011;35483;50.828;3.228;2023-02-11T05:22:46;12.48;;;9.60;;
49578;SDS011;35483;50.828;3.228;2023-02-11T05:25:12;14.50;;;9.82;;
49578;SDS011;35483;50.828;3.228;2023-02-11T05:27:37;15.18;;;10.18;;
49578;SDS011;35483;50.828;3.228;2023-02-11T05:30:03;15.63;;;10.80;;
49578;SDS011;35483;50.828;3.228;2023-02-11T05:32:30;16.50;;;10.90;;
49578;SDS011;35483;50.828;3.228;2023-02-11T05:34:55;17.27;;;10.75;;
49578;SDS011;35483;50.828;3.228;2023-02-11T05:37:21;18.88;;;11.07;;
49578;SDS011;35483;50.828;3.228;2023-02-11T05:39:47;17.52;;;11.50;;
49578;SDS011;35483;50.828;3.228;2023-02-11T05:42:13;16.33;;;11.13;;
49578;SDS011;35483;50.828;3.228;2023-02-11T05:44:38;14.52;;;10.18;;
49578;SDS011;35483;50.828;3.228;2023-02-11T05:47:04;24.52;;;11.02;;
49578;SDS011;35483;50.828;3.228;2023-02-11T05:49:32;19.45;;;11.52;;
49578;SDS011;35483;50.828;3.228;2023-02-11T05:51:58;17.60;;;11.38;;
49578;SDS011;35483;50.828;3.228;2023-02-11T05:54:24;21.50;;;11.57;;
49578;SDS011;35483;50.828;3.228;2023-02-11T05:56:50;16.95;;;11.23;;
49578;SDS011;35483;50.828;3.228;2023-02-11T05:59:15;18.85;;;11.27;;
49578;SDS011;35483;50.828;3.228;2023-02-11T06:01:41;16.45;;;11.75;;
49578;SDS011;35483;50.828;3.228;2023-02-11T06:04:07;18.52;;;12.10;;
49578;SDS011;35483;50.828;3.228;2023-02-11T06:06:33;16.75;;;12.07;;
49578;SDS011;35483;50.828;3.228;2023-02-11T06:08:58;16.23;;;11.77;;
49578;SDS011;35483;50.828;3.228;2023-02-11T06:11:24;18.85;;;12.35;;
49578;SDS011;35483;50.828;3.228;2023-02-11T06:13:50;20.90;;;12.60;;
49578;SDS011;35483;50.828;3.228;2023-02-11T06:16:16;20.40;;;12.13;;
49578;SDS011;35483;50.828;3.228;2023-02-11T06:18:41;18.48;;;11.75;;
49578;SDS011;35483;50.828;3.228;2023-02-11T06:21:08;17.67;;;11.93;;
49578;SDS011;35483;50.828;3.228;2023-02-11T06:23:35;20.10;;;11.68;;
49578;SDS011;35483;50.828;3.228;2023-02-11T06:26:02;18.00;;;11.93;;
49578;SDS011;35483;50.828;3.228;2023-02-11T06:28:29;20.70;;;12.90;;
49578;SDS011;35483;50.828;3.228;2023-02-11T06:30:58;19.77;;;12.13;;
49578;SDS011;35483;50.828;3.228;2023-02-11T06:33:30;22.52;;;12.98;;
49578;SDS011;35483;50.828;3.228;2023-02-11T06:35:56;20.40;;;12.45;;
49578;SDS011;35483;50.828;3.228;2023-02-11T06:38:21;22.58;;;13.68;;
49578;SDS011;35483;50.828;3.228;2023-02-11T06:40:47;22.77;;;12.82;;
49578;SDS011;35483;50.828;3.228;2023-02-11T06:43:13;20.63;;;14.07;;
49578;SDS011;35483;50.828;3.228;2023-02-11T06:45:39;21.65;;;13.98;;
49578;SDS011;35483;50.828;3.228;2023-02-11T06:48:05;21.52;;;14.63;;
49578;SDS011;35483;50.828;3.228;2023-02-11T06:50:30;23.58;;;14.63;;
49578;SDS011;35483;50.828;3.228;2023-02-11T06:52:57;25.55;;;13.50;;
49578;SDS011;35483;50.828;3.228;2023-02-11T06:55:24;23.42;;;14.75;;
49578;SDS011;35483;50.828;3.228;2023-02-11T06:57:50;21.52;;;13.45;;
49578;SDS011;35483;50.828;3.228;2023-02-11T07:00:15;20.60;;;13.52;;
49578;SDS011;35483;50.828;3.228;2023-02-11T07:02:42;25.08;;;14.90;;
49578;SDS011;35483;50.828;3.228;2023-02-11T07:05:08;22.23;;;13.82;;
49578;SDS011;35483;50.828;3.228;2023-02-11T07:07:34;25.77;;;15.35;;
49578;SDS011;35483;50.828;3.228;2023-02-11T07:09:59;30.55;;;15.63;;
49578;SDS011;35483;50.828;3.228;2023-02-11T07:12:28;22.38;;;14.90;;
49578;SDS011;35483;50.828;3.228;2023-02-11T07:14:54;23.50;;;13.90;;
49578;SDS011;35483;50.828;3.228;2023-02-11T07:17:21;26.95;;;15.93;;
49578;SDS011;35483;50.828;3.228;2023-02-11T07:19:46;26.55;;;15.93;;
49578;SDS011;35483;50.828;3.228;2023-02-11T07:22:12;25.55;;;16.20;;
49578;SDS011;35483;50.828;3.228;2023-02-11T07:24:38;27.30;;;16.42;;
49578;SDS011;35483;50.828;3.228;2023-02-11T07:27:05;23.88;;;14.63;;
49578;SDS011;35483;50.828;3.228;2023-02-11T07:29:31;24.85;;;15.07;;
49578;SDS011;35483;50.828;3.228;2023-02-11T07:31:57;26.48;;;16.13;;
49578;SDS011;35483;50.828;3.228;2023-02-11T07:34:23;26.88;;;16.58;;
49578;SDS011;35483;50.828;3.228;2023-02-11T07:36:48;24.05;;;15.55;;
49578;SDS011;35483;50.828;3.228;2023-02-11T07:39:14;28.27;;;15.35;;
49578;SDS011;35483;50.828;3.228;2023-02-11T07:41:40;25.67;;;16.35;;
49578;SDS011;35483;50.828;3.228;2023-02-11T07:44:06;24.05;;;16.40;;
49578;SDS011;35483;50.828;3.228;2023-02-11T07:46:32;25.00;;;14.95;;
49578;SDS011;35483;50.828;3.228;2023-02-11T07:48:59;25.45;;;15.50;;
49578;SDS011;35483;50.828;3.228;2023-02-11T07:51:26;24.80;;;15.52;;
49578;SDS011;35483;50.828;3.228;2023-02-11T07:53:54;24.40;;;15.80;;
49578;SDS011;35483;50.828;3.228;2023-02-11T07:56:22;22.25;;;14.48;;
49578;SDS011;35483;50.828;3.228;2023-02-11T07:58:48;25.38;;;15.27;;
49578;SDS011;35483;50.828;3.228;2023-02-11T08:01:18;22.25;;;14.85;;
49578;SDS011;35483;50.828;3.228;2023-02-11T08:03:51;21.85;;;16.40;;
49578;SDS011;35483;50.828;3.228;2023-02-11T08:06:18;23.05;;;16.17;;
49578;SDS011;35483;50.828;3.228;2023-02-11T08:08:45;24.42;;;15.55;;
49578;SDS011;35483;50.828;3.228;2023-02-11T08:13:44;32.75;;;18.33;;
49578;SDS011;35483;50.828;3.228;2023-02-11T08:16:24;29.48;;;17.70;;
49578;SDS011;35483;50.828;3.228;2023-02-11T08:18:58;22.80;;;16.75;;
49578;SDS011;35483;50.828;3.228;2023-02-11T08:21:25;28.60;;;17.92;;
49578;SDS011;35483;50.828;3.228;2023-02-11T08:23:51;29.88;;;18.33;;
49578;SDS011;35483;50.828;3.228;2023-02-11T08:26:18;30.10;;;16.98;;
49578;SDS011;35483;50.828;3.228;2023-02-11T08:28:46;30.77;;;19.02;;
49578;SDS011;35483;50.828;3.228;2023-02-11T08:31:17;37.05;;;21.42;;
49578;SDS011;35483;50.828;3.228;2023-02-11T08:33:45;29.77;;;19.58;;
49578;SDS011;35483;50.828;3.228;2023-02-11T08:36:13;24.38;;;16.40;;
49578;SDS011;35483;50.828;3.228;2023-02-11T08:38:42;27.73;;;17.10;;
49578;SDS011;35483;50.828;3.228;2023-02-11T08:41:09;25.48;;;17.42;;
49578;SDS011;35483;50.828;3.228;2023-02-11T08:43:35;22.17;;;17.02;;
49578;SDS011;35483;50.828;3.228;2023-02-11T08:46:05;21.30;;;15.90;;
49578;SDS011;35483;50.828;3.228;2023-02-11T08:48:32;23.58;;;16.70;;
49578;SDS011;35483;50.828;3.228;2023-02-11T08:50:58;26.00;;;16.95;;
49578;SDS011;35483;50.828;3.228;2023-02-11T08:53:23;25.98;;;17.10;;
49578;SDS011;35483;50.828;3.228;2023-02-11T08:55:50;25.23;;;16.20;;
49578;SDS011;35483;50.828;3.228;2023-02-11T08:58:17;24.92;;;17.13;;
49578;SDS011;35483;50.828;3.228;2023-02-11T09:00:43;28.02;;;17.52;;
49578;SDS011;35483;50.828;3.228;2023-02-11T09:03:13;24.35;;;17.90;;
49578;SDS011;35483;50.828;3.228;2023-02-11T09:05:43;24.05;;;17.92;;
49578;SDS011;35483;50.828;3.228;2023-02-11T09:08:10;23.33;;;17.25;;
49578;SDS011;35483;50.828;3.228;2023-02-11T09:10:36;23.52;;;17.08;;
49578;SDS011;35483;50.828;3.228;2023-02-11T09:13:02;24.60;;;17.73;;
49578;SDS011;35483;50.828;3.228;2023-02-11T09:15:28;22.58;;;16.67;;
49578;SDS011;35483;50.828;3.228;2023-02-11T09:17:54;21.48;;;16.80;;
49578;SDS011;35483;50.828;3.228;2023-02-11T09:20:20;22.83;;;16.80;;
49578;SDS011;35483;50.828;3.228;2023-02-11T09:22:46;25.02;;;18.13;;
49578;SDS011;35483;50.828;3.228;2023-02-11T09:25:12;25.00;;;17.90;;
49578;SDS011;35483;50.828;3.228;2023-02-11T09:27:37;25.17;;;15.75;;
49578;SDS011;35483;50.828;3.228;2023-02-11T09:30:03;21.13;;;16.90;;
49578;SDS011;35483;50.828;3.228;2023-02-11T09:32:29;22.95;;;17.10;;
49578;SDS011;35483;50.828;3.228;2023-02-11T09:34:55;22.55;;;15.48;;
49578;SDS011;35483;50.828;3.228;2023-02-11T09:37:21;23.20;;;16.80;;
49578;SDS011;35483;50.828;3.228;2023-02-11T09:39:46;21.85;;;16.35;;
49578;SDS011;35483;50.828;3.228;2023-02-11T09:42:23;19.20;;;15.23;;
49578;SDS011;35483;50.828;3.228;2023-02-11T09:44:56;26.33;;;18.98;;
49578;SDS011;35483;50.828;3.228;2023-02-11T09:47:25;20.05;;;14.68;;
49578;SDS011;35483;50.828;3.228;2023-02-11T09:49:58;19.30;;;14.50;;
49578;SDS011;35483;50.828;3.228;2023-02-11T09:52:31;21.05;;;14.43;;
49578;SDS011;35483;50.828;3.228;2023-02-11T09:55:14;20.55;;;15.48;;
49578;SDS011;35483;50.828;3.228;2023-02-11T09:57:44;21.35;;;15.93;;
49578;SDS011;35483;50.828;3.228;2023-02-11T10:00:15;20.92;;;15.57;;
49578;SDS011;35483;50.828;3.228;2023-02-11T10:11:02;17.45;;;14.27;;
49578;SDS011;35483;50.828;3.228;2023-02-11T10:16:35;19.88;;;14.73;;
49578;SDS011;35483;50.828;3.228;2023-02-11T10:22:31;18.02;;;14.35;;
49578;SDS011;35483;50.828;3.228;2023-02-11T10:25:23;17.70;;;14.25;;
49578;SDS011;35483;50.828;3.228;2023-02-11T10:27:52;17.70;;;14.25;;
49578;SDS011;35483;50.828;3.228;2023-02-11T10:30:35;20.00;;;14.38;;
49578;SDS011;35483;50.828;3.228;2023-02-11T10:35:44;20.02;;;14.73;;
49578;SDS011;35483;50.828;3.228;2023-02-11T10:38:10;19.70;;;14.75;;
49578;SDS011;35483;50.828;3.228;2023-02-11T10:40:36;18.17;;;14.20;;
49578;SDS011;35483;50.828;3.228;2023-02-11T10:43:03;18.98;;;14.52;;
49578;SDS011;35483;50.828;3.228;2023-02-11T10:48:00;16.58;;;13.70;;
49578;SDS011;35483;50.828;3.228;2023-02-11T10:50:28;19.00;;;14.40;;
49578;SDS011;35483;50.828;3.228;2023-02-11T10:56:21;17.50;;;13.48;;
49578;SDS011;35483;50.828;3.228;2023-02-11T10:58:45;22.17;;;14.52;;
49578;SDS011;35483;50.828;3.228;2023-02-11T11:01:19;18.52;;;13.27;;
49578;SDS011;35483;50.828;3.228;2023-02-11T11:03:46;18.52;;;13.20;;
49578;SDS011;35483;50.828;3.228;2023-02-11T11:06:14;16.38;;;12.85;;
49578;SDS011;35483;50.828;3.228;2023-02-11T11:08:42;16.52;;;13.55;;
49578;SDS011;35483;50.828;3.228;2023-02-11T11:11:18;18.40;;;14.88;;
49578;SDS011;35483;50.828;3.228;2023-02-11T11:18:53;17.98;;;14.23;;
49578;SDS011;35483;50.828;3.228;2023-02-11T11:21:46;17.42;;;14.23;;
49578;SDS011;35483;50.828;3.228;2023-02-11T11:24:27;18.88;;;13.93;;
49578;SDS011;35483;50.828;3.228;2023-02-11T11:27:02;18.60;;;12.90;;
49578;SDS011;35483;50.828;3.228;2023-02-11T11:31:58;22.35;;;13.10;;
49578;SDS011;35483;50.828;3.228;2023-02-11T11:34:40;15.32;;;13.10;;
49578;SDS011;35483;50.828;3.228;2023-02-11T11:37:12;18.05;;;13.48;;
49578;SDS011;35483;50.828;3.228;2023-02-11T11:39:58;16.23;;;12.98;;
49578;SDS011;35483;50.828;3.228;2023-02-11T11:42:33;14.63;;;12.82;;
49578;SDS011;35483;50.828;3.228;2023-02-11T11:45:01;16.45;;;12.57;;
49578;SDS011;35483;50.828;3.228;2023-02-11T11:47:42;14.68;;;11.63;;
49578;SDS011;35483;50.828;3.228;2023-02-11T11:55:18;14.25;;;11.60;;
49578;SDS011;35483;50.828;3.228;2023-02-11T11:57:47;18.35;;;12.98;;
49578;SDS011;35483;50.828;3.228;2023-02-11T12:00:17;15.48;;;12.55;;
49578;SDS011;35483;50.828;3.228;2023-02-11T12:02:53;16.55;;;12.90;;
49578;SDS011;35483;50.828;3.228;2023-02-11T12:05:49;19.25;;;14.15;;
49578;SDS011;35483;50.828;3.228;2023-02-11T12:08:42;17.42;;;14.27;;
49578;SDS011;35483;50.828;3.228;2023-02-11T12:14:23;16.40;;;13.95;;
49578;SDS011;35483;50.828;3.228;2023-02-11T12:16:59;16.42;;;13.63;;
49578;SDS011;35483;50.828;3.228;2023-02-11T12:19:44;18.90;;;14.27;;
49578;SDS011;35483;50.828;3.228;2023-02-11T12:25:40;17.25;;;14.02;;
49578;SDS011;35483;50.828;3.228;2023-02-11T12:45:07;19.20;;;14.75;;
49578;SDS011;35483;50.828;3.228;2023-02-11T12:55:42;19.67;;;14.90;;
49578;SDS011;35483;50.828;3.228;2023-02-11T12:58:15;21.73;;;15.60;;
49578;SDS011;35483;50.828;3.228;2023-02-11T13:00:54;19.40;;;14.50;;
49578;SDS011;35483;50.828;3.228;2023-02-11T13:03:27;20.80;;;15.10;;
49578;SDS011;35483;50.828;3.228;2023-02-11T13:06:02;22.25;;;14.77;;
49578;SDS011;35483;50.828;3.228;2023-02-11T13:08:31;18.70;;;15.13;;
49578;SDS011;35483;50.828;3.228;2023-02-11T13:11:19;19.67;;;14.63;;
49578;SDS011;35483;50.828;3.228;2023-02-11T13:16:32;18.42;;;15.27;;
49578;SDS011;35483;50.828;3.228;2023-02-11T13:21:36;18.60;;;15.25;;
49578;SDS011;35483;50.828;3.228;2023-02-11T13:27:06;19.50;;;14.77;;
49578;SDS011;35483;50.828;3.228;2023-02-11T13:35:34;17.90;;;14.32;;
49578;SDS011;35483;50.828;3.228;2023-02-11T13:38:29;21.88;;;14.88;;
49578;SDS011;35483;50.828;3.228;2023-02-11T13:43:29;18.15;;;14.07;;
49578;SDS011;35483;50.828;3.228;2023-02-11T13:46:02;18.77;;;14.38;;
49578;SDS011;35483;50.828;3.228;2023-02-11T13:48:30;17.05;;;12.73;;
49578;SDS011;35483;50.828;3.228;2023-02-11T13:51:04;19.70;;;14.73;;
49578;SDS011;35483;50.828;3.228;2023-02-11T13:56:10;19.58;;;14.73;;
49578;SDS011;35483;50.828;3.228;2023-02-11T13:58:48;17.73;;;14.10;;
49578;SDS011;35483;50.828;3.228;2023-02-11T14:04:29;18.80;;;13.82;;
49578;SDS011;35483;50.828;3.228;2023-02-11T14:07:28;18.42;;;13.40;;
49578;SDS011;35483;50.828;3.228;2023-02-11T14:13:16;18.38;;;14.32;;
49578;SDS011;35483;50.828;3.228;2023-02-11T14:16:03;19.83;;;15.02;;
49578;SDS011;35483;50.828;3.228;2023-02-11T14:18:56;22.00;;;16.20;;
49578;SDS011;35483;50.828;3.228;2023-02-11T14:24:46;20.63;;;15.68;;
49578;SDS011;35483;50.828;3.228;2023-02-11T14:29:40;18.95;;;13.95;;
49578;SDS011;35483;50.828;3.228;2023-02-11T14:37:29;18.13;;;14.60;;
49578;SDS011;35483;50.828;3.228;2023-02-11T14:40:31;19.30;;;14.68;;
49578;SDS011;35483;50.828;3.228;2023-02-11T14:43:00;20.08;;;14.57;;
49578;SDS011;35483;50.828;3.228;2023-02-11T14:45:49;20.35;;;14.35;;
49578;SDS011;35483;50.828;3.228;2023-02-11T14:48:18;19.60;;;14.93;;
49578;SDS011;35483;50.828;3.228;2023-02-11T14:50:50;20.77;;;14.55;;
49578;SDS011;35483;50.828;3.228;2023-02-11T14:53:23;18.50;;;14.55;;
49578;SDS011;35483;50.828;3.228;2023-02-11T14:55:50;18.38;;;14.38;;
49578;SDS011;35483;50.828;3.228;2023-02-11T14:58:18;19.58;;;14.57;;
49578;SDS011;35483;50.828;3.228;2023-02-11T15:01:02;20.27;;;15.20;;
49578;SDS011;35483;50.828;3.228;2023-02-11T15:03:41;20.35;;;14.85;;
49578;SDS011;35483;50.828;3.228;2023-02-11T15:06:25;20.98;;;15.68;;
49578;SDS011;35483;50.828;3.228;2023-02-11T15:11:44;19.58;;;14.40;;
49578;SDS011;35483;50.828;3.228;2023-02-11T15:14:20;20.17;;;13.95;;
49578;SDS011;35483;50.828;3.228;2023-02-11T15:16:47;18.45;;;14.63;;
49578;SDS011;35483;50.828;3.228;2023-02-11T15:19:22;19.63;;;14.38;;
49578;SDS011;35483;50.828;3.228;2023-02-11T15:21:52;17.77;;;14.60;;
49578;SDS011;35483;50.828;3.228;2023-02-11T15:24:23;18.98;;;13.90;;
49578;SDS011;35483;50.828;3.228;2023-02-11T15:26:55;19.50;;;14.48;;
49578;SDS011;35483;50.828;3.228;2023-02-11T15:29:23;20.27;;;14.00;;
49578;SDS011;35483;50.828;3.228;2023-02-11T15:34:50;20.17;;;14.77;;
49578;SDS011;35483;50.828;3.228;2023-02-11T15:37:22;19.45;;;14.70;;
49578;SDS011;35483;50.828;3.228;2023-02-11T15:39:49;18.85;;;14.60;;
49578;SDS011;35483;50.828;3.228;2023-02-11T15:42:17;22.15;;;16.08;;
49578;SDS011;35483;50.828;3.228;2023-02-11T15:44:43;18.15;;;14.63;;
49578;SDS011;35483;50.828;3.228;2023-02-11T15:47:12;19.45;;;14.35;;
49578;SDS011;35483;50.828;3.228;2023-02-11T15:49:44;21.73;;;14.90;;
49578;SDS011;35483;50.828;3.228;2023-02-11T15:52:11;19.90;;;14.13;;
49578;SDS011;35483;50.828;3.228;2023-02-11T15:54:48;18.67;;;14.60;;
49578;SDS011;35483;50.828;3.228;2023-02-11T15:57:14;17.65;;;13.88;;
49578;SDS011;35483;50.828;3.228;2023-02-11T15:59:44;19.33;;;13.93;;
49578;SDS011;35483;50.828;3.228;2023-02-11T16:02:17;19.13;;;14.68;;
49578;SDS011;35483;50.828;3.228;2023-02-11T16:04:57;18.85;;;14.10;;
49578;SDS011;35483;50.828;3.228;2023-02-11T16:13:18;17.85;;;13.73;;
49578;SDS011;35483;50.828;3.228;2023-02-11T16:15:54;19.88;;;14.30;;
49578;SDS011;35483;50.828;3.228;2023-02-11T16:20:58;19.70;;;14.00;;
49578;SDS011;35483;50.828;3.228;2023-02-11T16:23:35;17.95;;;13.43;;
49578;SDS011;35483;50.828;3.228;2023-02-11T16:26:08;17.45;;;13.98;;
49578;SDS011;35483;50.828;3.228;2023-02-11T16:29:09;18.70;;;12.88;;
49578;SDS011;35483;50.828;3.228;2023-02-11T16:31:46;20.67;;;14.10;;
49578;SDS011;35483;50.828;3.228;2023-02-11T16:36:41;16.13;;;12.13;;
49578;SDS011;35483;50.828;3.228;2023-02-11T16:39:07;17.17;;;12.50;;
49578;SDS011;35483;50.828;3.228;2023-02-11T16:41:32;17.42;;;12.73;;
49578;SDS011;35483;50.828;3.228;2023-02-11T16:43:58;17.38;;;13.43;;
49578;SDS011;35483;50.828;3.228;2023-02-11T16:46:24;17.67;;;13.50;;
49578;SDS011;35483;50.828;3.228;2023-02-11T16:48:51;18.00;;;13.85;;
49578;SDS011;35483;50.828;3.228;2023-02-11T16:51:18;18.13;;;13.57;;
49578;SDS011;35483;50.828;3.228;2023-02-11T16:53:43;18.45;;;13.32;;
49578;SDS011;35483;50.828;3.228;2023-02-11T16:56:16;18.73;;;13.95;;
49578;SDS011;35483;50.828;3.228;2023-02-11T16:58:42;18.95;;;14.50;;
49578;SDS011;35483;50.828;3.228;2023-02-11T17:01:09;18.63;;;14.50;;
49578;SDS011;35483;50.828;3.228;2023-02-11T17:03:35;20.45;;;15.05;;
49578;SDS011;35483;50.828;3.228;2023-02-11T17:06:08;24.10;;;13.65;;
49578;SDS011;35483;50.828;3.228;2023-02-11T17:08:35;17.92;;;13.80;;
49578;SDS011;35483;50.828;3.228;2023-02-11T17:11:02;18.85;;;14.23;;
49578;SDS011;35483;50.828;3.228;2023-02-11T17:13:28;19.45;;;14.50;;
49578;SDS011;35483;50.828;3.228;2023-02-11T17:15:55;18.27;;;13.52;;
49578;SDS011;35483;50.828;3.228;2023-02-11T17:18:21;16.67;;;12.95;;